Terminal Aerodrome Forecast
Issued by NWS Twin Cities, MN

Home | Current Version | Previous Version | Graphics & Text | Print | Product List | Glossary Off
Versions: 1 2 3 4 5 6 7 8 9 10 11 12 13 14 15 16 17 18 19 20 21 22 23 24 25 26 27 28 29

000
FTUS43 KMPX 280842 AAA
TAFMSP
TAF AMD
KMSP 280842Z 2809/2912 34008KT P6SM BKN015 OVC020
      TEMPO 2809/2812 BKN035 OVC050
     FM281200 35009KT P6SM SCT015 BKN025 OVC050
     FM281600 36012G18KT P6SM BKN025 OVC050
     FM282200 36009KT P6SM BKN050
     FM290000 01006KT P6SM SKC=

USA.gov is the U.S. government's official web portal to all federal, state and local government web resources and services.